Station: CAPE WILLOUGHBY

  Atmospheric Gas Attenuation - ITU Rec 676-11   --------------- db/100km ---------------
Date Time Temp RH % AH g/m3 Dew Point Wind Direction Speed kph Gust kph Barometer mB Rainfall Since 9am 24GHz 47GHz 76GHz 122GHz 134GHz 241GHz
05 13:00 18.5 67 10.6 12.3 20 33 999.6 3.6 23.6 27.2 44.7 117.7 117.0 404.4
05 12:50 19.5 60 10.07 11.5 22 28 1013.1 3.6 22.4 26.6 42.7 112.2 109.9 379.5
05 12:40 18.3 63 9.85 11.1 30 37 1013.1 3.6 22.0 26.6 42.4 111.6 108.8 375.3
05 12:30 19.2 57 9.4 10.5 32 48 1000.2 3.6 21.0 25.1 39.7 104.3 100.7 347.4
05 12:20 19.3 60 9.95 11.3 35 43 1013.1 3.6 22.2 26.4 42.3 111.2 108.7 375.1
05 12:10 20.4 56 9.91 11.3 28 37 1013.1 3.6 22.0 26.0 41.6 109.3 106.6 368.1
05 12:00 20.5 55 9.79 11.2 32 46 999.9 3.6 21.8 25.4 40.5 106.5 103.9 358.6
05 11:50 19.4 62 10.34 12.1 30 37 1013.1 3.6 23.0 27.0 43.8 115.1 113.5 392.2
05 11:40 18.4 66 10.38 12.1 28 41 1013.1 3.6 23.1 27.4 44.5 117.0 115.5 399.1
05 11:30 18.7 68 10.89 12.7 26 37 1000.2 3.6 24.2 27.6 45.8 120.6 120.6 416.9
05 11:20 18.6 67 10.66 12.5 26 32 1013.1 3.6 23.7 27.8 45.5 119.8 119.0 411.0
05 11:10 18.4 78 12.27 14.5 15 20 1013.1 3.6 27.2 30.6 52.3 137.9 141.3 489.0
05 11:00 18.5 77 12.18 14.4 22 30 1000.2 3.6 27.0 29.9 51.2 135.2 138.4 479.2
05 10:50 18.3 83 12.98 15.3 20 22 1013.1 3.6 28.7 31.8 55.5 146.3 151.6 524.8
05 10:40 18.6 80 12.73 15.2 15 20 1013.1 3.6 28.1 31.3 54.2 142.9 147.4 510.3
05 10:30 18.4 82 12.9 15.3 20 35 1000.1 3.6 28.6 31.1 54.4 143.5 148.7 515.1
05 10:20 18.1 86 13.29 15.7 15 19 1013.1 3.6 29.4 32.4 57.0 150.4 156.4 541.8
05 10:10 17.9 87 13.28 15.7 17 19 1013.1 3.6 29.4 32.5 57.1 150.6 156.7 542.8
05 10:00 18.2 88 13.68 16.2 19 28 999.9 3.6 30.3 32.6 57.9 153.0 160.3 555.5
05 09:50 18.3 87 13.6 16.2 20 26 1013.1 3.6 30.0 32.9 58.2 153.6 160.6 556.2
05 09:40 18.2 87 13.52 16.1 26 30 1013.1 3.6 29.9 32.8 57.9 152.9 159.6 552.8
05 09:30 18.1 88 13.6 16.1 24 33 999.2 3.6 30.1 32.4 57.6 152.2 159.3 551.9
05 09:20 18.3 86 13.45 15.9 24 28 1013.1 3.6 29.7 32.7 57.6 151.9 158.4 548.5
05 09:10 19.2 79 13.03 15.6 22 28 1013.1 1 28.7 31.6 55.1 145.2 150.5 521.2
05 09:00 20 76 13.13 15.6 26 39 999 0 28.9 30.9 54.2 143.1 148.7 515.2
05 08:50 20.2 75 13.11 15.6 26 30 1013.1 0.2 28.8 31.4 54.7 144.3 149.6 518.4
05 08:40 20.4 75 13.27 15.8 26 37 1013.1 0.2 29.2 31.6 55.2 145.7 151.5 524.9
05 08:30 20.7 74 13.32 15.9 37 52 998.4 0.2 29.3 31.0 54.5 143.8 149.9 519.5
05 08:20 21.7 68 12.97 15.7 33 39 1013.1 0.2 28.4 30.6 53.1 139.9 144.8 501.8
05 08:10 21.1 71 13.08 15.6 32 39 1013.1 0.2 28.7 31.0 53.9 142.3 147.5 511.0
05 08:00 21.4 70 13.12 15.7 44 57 997.4 0.2 28.8 30.3 53.1 140.2 145.7 504.9
05 07:50 21.4 68 12.75 15.4 43 48 1013.1 0.2 28.0 30.3 52.3 138.0 142.4 493.2
05 07:40 21.1 71 13.08 15.6 39 46 1013.1 0.2 28.7 31.0 53.9 142.3 147.5 511.0
05 07:30 20.8 73 13.22 15.8 41 54 997.9 0.2 29.1 30.7 53.9 142.5 148.3 513.8
05 07:20 20.5 75 13.34 15.9 44 54 1013.1 0.2 29.3 31.6 55.5 146.3 152.3 527.6
05 07:10 21 69 12.64 15.1 54 69 1013.1 0 27.8 30.3 52.2 137.5 141.6 490.4
05 07:00 21.7 63 12.02 14.4 54 78 998.5 0 26.5 28.5 48.4 127.8 130.5 451.9
05 06:50 23 54 11.1 13.2 43 48 1013.1 0 24.4 27.1 44.7 117.8 118.0 408.1
05 06:40 23 50 10.28 12 35 43 1013.1 0 22.7 25.9 41.6 109.5 107.7 372.2
05 06:30 23.1 48 9.92 11.5 48 65 999.2 0 21.9 24.8 39.6 104.3 102.0 352.4
05 06:20 24.1 41 8.97 10 44 57 1013.1 0 19.9 23.6 36.3 95.3 90.6 312.6
05 06:10 24.8 36 8.19 8.7 41 50 1013.1 0 18.2 22.4 33.3 87.3 81.0 278.8
05 06:00 23.8 43 9.25 10.5 30 41 998 0 20.5 23.6 36.8 96.9 93.1 321.3
05 05:50 24.1 38 8.31 8.9 22 28 1013.1 0 18.5 22.7 34.0 89.2 83.0 286.0
05 05:40 21 50 9.16 10.4 13 22 1013.1 0 20.4 24.7 38.4 100.9 96.5 332.9
05 05:30 24.6 32 7.2 6.8 22 28 999.3 0 16.2 20.6 29.6 77.5 69.4 238.2
05 05:20 24.5 32 7.16 6.7 13 15 1013.1 0 16.1 21.0 30.0 78.4 69.9 239.8
05 05:10 24.3 32 7.08 6.5 26 30 1013.1 0 15.9 21.0 29.8 77.9 69.2 237.4
05 04:50 20.1 57 9.91 11.5 13 13 1013.1 0 22.1 26.1 41.7 109.7 107.0 369.5
05 04:40 19.9 60 10.31 12.1 9 9 1013.1 0 22.9 26.8 43.4 114.1 112.4 388.4
05 04:30 20 60 10.37 12 19 28 999 0 23.1 26.4 42.9 113.0 111.8 386.3
05 04:20 20.5 54 9.61 11.1 22 28 1013.1 0 21.4 25.6 40.4 106.1 102.7 354.5
05 04:10 19.9 60 10.31 11.9 9 11 1013.1 0 22.9 26.8 43.4 114.1 112.4 388.4
05 04:00 20.4 55 9.73 11.1 17 22 999.6 0 21.7 25.3 40.3 106.0 103.2 356.3
05 03:50 21.2 49 9.08 10.3 9 13 1013.1 0 20.2 24.6 38.0 99.9 95.3 328.7
05 03:40 20.4 56 9.91 11.3 7 11 1013.1 0 22.0 26.0 41.6 109.3 106.6 368.1
05 03:30 21.1 51 9.4 10.6 24 30 1000.1 0 20.9 24.6 38.7 101.8 98.3 339.2
05 03:20 21.6 48 9.1 10.1 28 33 1013.1 0 20.3 24.5 37.9 99.6 95.1 327.9
05 03:10 22.8 40 8.13 8.5 37 39 1013.1 0 18.2 22.8 33.9 88.9 82.3 283.3
05 03:00 23.9 34 7.36 7.1 41 50 1000.3 0 16.5 21.0 30.4 79.6 71.8 246.6
05 02:50 23.7 37 7.91 8.1 39 43 1013.1 0 17.7 22.2 32.8 85.9 78.9 271.4
05 02:40 24.4 34 7.57 7.5 44 50 1013.1 0 16.9 21.6 31.4 82.1 74.5 255.9
05 02:30 27.4 24 6.32 5.1 48 65 1000 0 14.2 18.9 25.9 67.7 58.1 198.9
05 02:20 26.1 31 7.59 7.6 33 39 1013.1 0 16.9 21.2 30.8 80.6 73.1 251.4
05 02:10 26.2 29 7.14 6.7 28 37 1013.1 0 16.0 20.6 29.3 76.6 68.2 234.2
05 02:00 24.1 36 7.88 8.1 37 46 1002.1 0 17.6 21.7 32.1 84.2 77.5 266.5
05 01:50 23.2 41 8.52 9.2 41 46 1013.1 0 19.0 23.2 35.1 92.1 86.4 297.6
05 01:40 22.7 42 8.49 9.1 41 44 1013.1 0 18.9 23.3 35.2 92.4 86.6 298.2
05 01:30 22.4 44 8.74 9.6 44 54 1001.9 0 19.5 23.4 35.8 94.0 89.0 306.8
05 01:20 22.3 45 8.89 9.8 52 57 1013.1 0 19.8 24.0 36.8 96.7 91.7 316.3
05 01:10 22.4 46 9.13 10.2 48 54 1013.1 0 20.3 24.3 37.7 98.9 94.5 325.9
05 01:00 22.4 46 9.13 10.2 43 54 1002.5 0 20.3 23.9 37.2 97.8 93.7 323.1
05 00:50 22.3 47 9.28 10.4 39 43 1013.1 0 20.6 24.6 38.3 100.5 96.4 332.6
05 00:40 21.3 55 10.25 11.9 24 30 1013.1 0 22.7 26.3 42.4 111.5 109.7 378.9
05 00:30 21.3 57 10.62 12.4 33 39 1003.5 0 23.5 26.5 43.4 114.3 113.5 392.4
05 00:20 20.9 60 10.93 12.8 35 39 1013.1 0 24.2 27.5 45.3 119.1 119.0 411.4
05 00:10 20 69 11.92 14.3 35 39 1013.1 0 26.3 29.4 49.8 131.3 133.6 462.3
05 00:00 19.4 76 12.68 15.1 28 33 1003.8 0 28.0 30.5 52.9 139.7 144.1 499.1
04 23:50 19.2 77 12.7 15.2 26 30 1013.1 0 28.0 31.0 53.6 141.4 145.8 504.9
04 23:40 19.4 75 12.51 15 30 33 1013.1 0 27.6 30.6 52.7 138.9 142.8 494.3
04 23:30 19.4 75 12.51 14.8 30 33 1013.1 0 27.6 30.6 52.7 138.9 142.8 494.3
04 23:20 19.3 74 12.27 14.5 28 32 1013.1 0 27.1 30.2 51.7 136.4 139.6 483.3
04 23:10 19.2 74 12.2 14.6 28 32 1013.1 0 27.0 30.2 51.5 135.7 138.8 480.6
04 23:00 19.3 73 12.11 14.3 26 32 1005.3 0 26.8 29.7 50.7 133.6 136.6 472.8
04 22:50 19.2 73 12.04 14.2 26 30 1013.1 0 26.6 29.9 50.8 133.9 136.6 472.8
04 22:40 19.1 73 11.97 14.1 20 20 1013.1 0 26.5 29.8 50.6 133.3 135.8 470.1
04 22:30 19.3 71 11.78 13.9 15 19 1006.6 0 26.1 29.2 49.4 130.1 132.2 457.5
04 22:20 19.1 72 11.8 13.9 13 15 1013.1 0 26.1 29.5 49.9 131.4 133.5 461.9
04 22:10 18.9 73 11.83 14.1 13 19 1013.1 0 26.2 29.6 50.1 132.1 134.3 464.6
04 22:00 18.7 75 12.01 14.2 15 20 1006.9 0 26.6 29.8 50.7 133.7 136.4 472.2
04 21:50 18.6 73 11.62 13.8 13 15 1013.1 0 25.8 29.4 49.5 130.3 131.9 456.3
04 21:40 18.5 74 11.71 13.9 15 17 1013.1 0 26.0 29.6 49.9 131.4 133.3 461.2
04 21:30 18.5 75 11.87 14 15 19 1007.5 0 26.3 29.6 50.3 132.6 134.9 466.9
04 21:20 18.4 76 11.95 14.1 15 15 1013.1 0 26.5 30.0 51.0 134.3 136.8 473.4
04 21:10 18.3 77 12.04 14.2 17 19 1013.1 0 26.7 30.2 51.4 135.5 138.2 478.4
04 21:00 18.2 77 11.97 14.1 13 19 1007.6 0 26.6 29.9 50.9 134.2 136.9 473.6
04 20:50 18.3 77 12.04 14.2 11 13 1013.1 0 26.7 30.2 51.4 135.5 138.2 478.4
04 20:40 18.6 74 11.78 14 13 17 1013.1 0 26.1 29.6 50.1 132.1 134.1 464.0
04 20:30 18.6 74 11.78 13.9 17 22 1008.3 0 26.1 29.5 49.9 131.5 133.6 462.2
04 20:20 18.5 74 11.71 13.9 19 20 1013.1 0 26.0 29.6 49.9 131.4 133.3 461.2

Last Refresh: 05-Dec-2020 13:15:59

Most of the information presented on this site is sourced from the Bureau of Meteorology.  Copyright in all material sourced from the Bureau of Meteorology resides with the Commonwealth of Australia.